createdAt,value
2019-02-14T00:00:48.651Z,3.90
2019-02-14T00:03:17.015Z,3.90
2019-02-14T00:05:45.245Z,3.80
2019-02-14T00:08:15.098Z,3.90
2019-02-14T00:10:43.634Z,3.80
2019-02-14T00:13:11.859Z,3.80
2019-02-14T00:15:41.792Z,3.90
2019-02-14T00:18:10.317Z,3.90
2019-02-14T00:20:38.662Z,3.90
2019-02-14T00:23:06.878Z,3.90
2019-02-14T00:25:37.742Z,3.90
2019-02-14T00:28:06.134Z,3.80
2019-02-14T00:30:34.365Z,3.80
2019-02-14T00:33:03.177Z,3.80
2019-02-14T00:35:31.557Z,3.70
2019-02-14T00:37:59.784Z,3.80
2019-02-14T00:40:30.169Z,3.80
2019-02-14T00:42:58.876Z,3.80
2019-02-14T00:45:27.117Z,3.70
2019-02-14T00:47:57.758Z,3.70
2019-02-14T00:50:26.480Z,3.70
2019-02-14T00:52:54.699Z,3.70
2019-02-14T00:55:24.525Z,3.70
2019-02-14T00:57:53.135Z,3.60
2019-02-14T01:00:21.830Z,3.60
2019-02-14T01:02:52.426Z,3.60
2019-02-14T01:05:20.827Z,3.60
2019-02-14T01:07:49.089Z,3.60
2019-02-14T01:10:17.341Z,3.50
2019-02-14T01:12:46.049Z,3.50
2019-02-14T01:15:15.936Z,3.50
2019-02-14T01:17:44.378Z,3.40
2019-02-14T01:20:12.827Z,3.40
2019-02-14T01:22:41.068Z,3.50
2019-02-14T01:25:09.611Z,3.50
2019-02-14T01:27:40.214Z,3.60
2019-02-14T01:30:10.656Z,3.60
2019-02-14T01:32:39.703Z,3.60
2019-02-14T01:35:10.067Z,3.60
2019-02-14T01:37:38.303Z,3.60
2019-02-14T01:40:07.577Z,3.60
2019-02-14T01:42:36.248Z,3.70
2019-02-14T01:45:07.617Z,3.60
2019-02-14T01:47:35.888Z,3.70
2019-02-14T01:50:06.897Z,3.70
2019-02-14T01:52:35.151Z,3.60
2019-02-14T01:55:03.556Z,3.60
2019-02-14T01:57:32.030Z,3.60
2019-02-14T02:00:00.346Z,3.60
2019-02-14T02:02:28.639Z,3.50
2019-02-14T02:04:57.329Z,3.50
2019-02-14T02:07:25.545Z,3.50
2019-02-14T02:09:53.772Z,3.50
2019-02-14T02:12:22.152Z,3.50
2019-02-14T02:14:50.473Z,3.50
2019-02-14T02:17:18.812Z,3.50
2019-02-14T02:19:47.367Z,3.50
2019-02-14T02:22:15.605Z,3.40
2019-02-14T02:24:43.834Z,3.40
2019-02-14T02:27:12.394Z,3.40
2019-02-14T02:29:40.637Z,3.40
2019-02-14T02:32:08.895Z,3.40
2019-02-14T02:34:37.410Z,3.30
2019-02-14T02:37:05.657Z,3.30
2019-02-14T02:39:35.530Z,3.30
2019-02-14T02:42:03.836Z,3.30
2019-02-14T02:44:32.272Z,3.30
2019-02-14T02:47:00.522Z,3.30
2019-02-14T02:49:29.550Z,3.30
2019-02-14T02:51:58.537Z,3.30
2019-02-14T02:54:26.786Z,3.20
2019-02-14T02:56:55.114Z,3.20
2019-02-14T02:59:23.562Z,3.20
2019-02-14T03:01:51.800Z,3.10
2019-02-14T03:04:20.025Z,3.10
2019-02-14T03:06:48.510Z,3.10
2019-02-14T03:09:16.778Z,3.00
2019-02-14T03:11:45.019Z,3.00
2019-02-14T03:14:13.525Z,3.00
2019-02-14T03:16:41.754Z,2.90
2019-02-14T03:19:09.985Z,2.90
2019-02-14T03:21:38.487Z,2.90
2019-02-14T03:24:06.707Z,2.80
2019-02-14T03:26:34.972Z,2.80
2019-02-14T03:29:03.615Z,2.80
2019-02-14T03:31:31.846Z,2.80
2019-02-14T03:34:00.081Z,2.80
2019-02-14T03:36:28.381Z,2.70
2019-02-14T03:38:56.700Z,2.70
2019-02-14T03:41:26.226Z,2.70
2019-02-14T03:43:54.649Z,2.70
2019-02-14T03:46:22.880Z,2.70
2019-02-14T03:48:51.136Z,2.60
2019-02-14T03:51:20.433Z,2.60
2019-02-14T03:53:48.706Z,2.50
2019-02-14T03:56:16.934Z,2.50
2019-02-14T03:58:45.437Z,2.40
2019-02-14T04:01:13.730Z,2.40
2019-02-14T04:03:41.973Z,2.40
2019-02-14T04:06:10.401Z,2.40
2019-02-14T04:08:38.607Z,2.40
2019-02-14T04:11:06.896Z,2.30
2019-02-14T04:13:35.362Z,2.30
2019-02-14T04:16:04.515Z,2.30
2019-02-14T04:18:33.023Z,2.30
2019-02-14T04:21:01.443Z,2.20
2019-02-14T04:23:29.733Z,2.20
2019-02-14T04:25:58.001Z,2.20
2019-02-14T04:28:27.635Z,2.20
2019-02-14T04:30:55.893Z,2.20
2019-02-14T04:33:25.756Z,2.20
2019-02-14T04:35:54.185Z,2.20
2019-02-14T04:38:22.505Z,2.20
2019-02-14T04:40:50.729Z,2.20
2019-02-14T04:43:19.144Z,2.30
2019-02-14T04:45:47.392Z,2.30
2019-02-14T04:48:15.620Z,2.30
2019-02-14T04:50:44.161Z,2.30
2019-02-14T04:53:12.393Z,2.30
2019-02-14T04:55:40.637Z,2.20
2019-02-14T04:58:09.058Z,2.20
2019-02-14T05:00:37.292Z,2.20
2019-02-14T05:03:05.521Z,2.20
2019-02-14T05:05:33.922Z,2.10
2019-02-14T05:08:02.131Z,2.10
2019-02-14T05:10:30.432Z,2.10
2019-02-14T05:12:59.369Z,2.00
2019-02-14T05:15:27.628Z,2.10
2019-02-14T05:17:55.895Z,2.00
2019-02-14T05:20:25.691Z,2.00
2019-02-14T05:22:53.974Z,2.00
2019-02-14T05:25:22.192Z,2.00
2019-02-14T05:27:50.753Z,2.00
2019-02-14T05:30:19.050Z,2.00
2019-02-14T05:32:47.288Z,1.90
2019-02-14T05:35:15.631Z,1.90
2019-02-14T05:37:44.047Z,1.90
2019-02-14T05:40:12.253Z,1.90
2019-02-14T05:42:40.740Z,1.90
2019-02-14T05:45:11.195Z,1.80
2019-02-14T05:47:43.510Z,1.80
2019-02-14T05:50:15.008Z,1.80
2019-02-14T05:52:43.554Z,1.80
2019-02-14T05:55:12.810Z,1.80
2019-02-14T05:57:41.043Z,1.80
2019-02-14T06:00:16.283Z,1.90
2019-02-14T06:02:44.525Z,1.80
2019-02-14T06:05:14.379Z,1.90
2019-02-14T06:07:42.824Z,1.80
2019-02-14T06:10:11.668Z,1.80
2019-02-14T06:12:42.461Z,1.80
2019-02-14T06:15:12.275Z,1.80
2019-02-14T06:17:40.558Z,1.80
2019-02-14T06:20:10.573Z,1.80
2019-02-14T06:22:38.920Z,1.80
2019-02-14T06:25:08.689Z,1.70
2019-02-14T06:27:37.420Z,1.70
2019-02-14T06:30:09.859Z,1.70
2019-02-14T06:32:39.111Z,1.70
2019-02-14T06:35:08.902Z,1.70
2019-02-14T06:37:37.331Z,1.70
2019-02-14T06:40:13.346Z,1.70
2019-02-14T06:42:42.071Z,1.60
2019-02-14T06:45:15.374Z,1.60
2019-02-14T06:47:43.952Z,1.60
2019-02-14T06:50:12.220Z,1.60
2019-02-14T06:52:41.151Z,1.60
2019-02-14T06:55:10.533Z,1.60
2019-02-14T06:57:38.804Z,1.60
2019-02-14T07:00:11.165Z,1.70
2019-02-14T07:02:39.395Z,1.70
2019-02-14T07:05:09.390Z,1.70
2019-02-14T07:07:37.795Z,1.70
2019-02-14T07:10:08.360Z,1.70
2019-02-14T07:12:36.593Z,1.80
2019-02-14T07:15:08.656Z,1.90
2019-02-14T07:17:36.894Z,1.90
2019-02-14T07:20:08.467Z,1.90
2019-02-14T07:22:36.955Z,1.90
2019-02-14T07:25:07.536Z,1.90
2019-02-14T07:27:35.761Z,2.10
2019-02-14T07:30:07.127Z,2.30
2019-02-14T07:32:35.774Z,2.60
2019-02-14T07:35:05.653Z,2.80
2019-02-14T07:37:33.934Z,3.00
2019-02-14T07:40:03.103Z,3.10
2019-02-14T07:42:31.406Z,3.10
2019-02-14T07:44:59.724Z,3.10
2019-02-14T07:47:28.204Z,3.30
2019-02-14T07:49:56.438Z,3.50
2019-02-14T07:52:25.318Z,3.50
2019-02-14T07:54:54.308Z,3.70
2019-02-14T07:57:23.939Z,4.20
2019-02-14T07:59:52.169Z,4.70
2019-02-14T08:02:20.684Z,4.50
2019-02-14T08:04:48.935Z,4.70
2019-02-14T08:07:17.186Z,4.60
2019-02-14T08:09:45.480Z,4.70
2019-02-14T08:12:14.626Z,4.80
2019-02-14T08:14:42.874Z,4.80
2019-02-14T08:17:12.595Z,5.40
2019-02-14T08:19:40.950Z,5.40
2019-02-14T08:22:09.251Z,5.40
2019-02-14T08:24:37.541Z,5.20
2019-02-14T08:27:06.396Z,5.50
2019-02-14T08:29:34.913Z,5.50
2019-02-14T08:32:03.135Z,5.20
2019-02-14T08:34:31.403Z,5.30
2019-02-14T08:36:59.719Z,5.20
2019-02-14T08:39:27.942Z,5.00
2019-02-14T08:41:56.174Z,4.80
2019-02-14T08:44:24.601Z,4.70
2019-02-14T08:46:52.820Z,5.10
2019-02-14T08:49:21.062Z,6.10
2019-02-14T08:51:49.648Z,6.10
2019-02-14T08:54:17.878Z,5.80
2019-02-14T08:56:46.103Z,5.40
2019-02-14T08:59:14.670Z,5.60
2019-02-14T09:01:44.526Z,5.70
2019-02-14T09:04:12.751Z,5.70
2019-02-14T09:06:40.986Z,5.40
2019-02-14T09:09:10.254Z,5.50
2019-02-14T09:11:38.525Z,5.70
2019-02-14T09:14:06.793Z,6.10
2019-02-14T09:16:35.199Z,6.60
2019-02-14T09:19:03.588Z,6.30
2019-02-14T09:21:31.836Z,6.10
2019-02-14T09:24:02.718Z,6.20
2019-02-14T09:26:31.336Z,6.60
2019-02-14T09:28:59.595Z,6.50
2019-02-14T09:31:27.810Z,6.40
2019-02-14T09:34:00.925Z,6.60
2019-02-14T09:36:29.181Z,6.70
2019-02-14T09:38:57.401Z,6.90
2019-02-14T09:41:26.660Z,7.20
2019-02-14T09:43:54.991Z,7.20
2019-02-14T09:46:23.405Z,7.30
2019-02-14T09:48:51.866Z,7.50
2019-02-14T09:51:20.094Z,7.80
2019-02-14T09:53:48.764Z,8.10
2019-02-14T09:56:17.188Z,8.20
2019-02-14T09:58:45.490Z,8.20
2019-02-14T10:01:13.761Z,8.20
2019-02-14T10:03:43.542Z,8.70
2019-02-14T10:06:11.882Z,9.10
2019-02-14T10:08:40.181Z,9.70
2019-02-14T10:11:08.663Z,9.80
2019-02-14T10:13:38.415Z,9.90
2019-02-14T10:16:06.654Z,9.70
2019-02-14T10:18:35.339Z,9.50
2019-02-14T10:21:03.576Z,9.40
2019-02-14T10:23:31.858Z,9.60
2019-02-14T10:26:01.402Z,9.40
2019-02-14T10:28:29.864Z,9.20
2019-02-14T10:30:58.120Z,9.00
2019-02-14T10:33:26.918Z,9.40
2019-02-14T10:35:55.306Z,9.60
2019-02-14T10:38:23.543Z,9.90
2019-02-14T10:40:52.086Z,10.40
2019-02-14T10:43:20.363Z,10.40
2019-02-14T10:45:48.594Z,10.70
2019-02-14T10:48:17.402Z,10.60
2019-02-14T10:50:45.658Z,11.20
2019-02-14T10:53:13.906Z,11.70
2019-02-14T10:55:43.073Z,11.60
2019-02-14T10:58:11.329Z,11.70
2019-02-14T11:00:39.989Z,11.20
2019-02-14T11:03:08.445Z,11.50
2019-02-14T11:05:36.683Z,11.90
2019-02-14T11:08:04.978Z,12.00
2019-02-14T11:10:33.374Z,11.70
2019-02-14T11:13:01.646Z,11.60
2019-02-14T11:15:29.905Z,11.80
2019-02-14T11:17:58.599Z,13.00
2019-02-14T11:20:26.872Z,13.30
2019-02-14T11:22:55.220Z,13.10
2019-02-14T11:25:26.870Z,13.00
2019-02-14T11:27:55.170Z,13.80
2019-02-14T11:30:24.126Z,14.80
2019-02-14T11:32:52.525Z,14.80
2019-02-14T11:35:20.786Z,14.50
2019-02-14T11:37:49.095Z,13.90
2019-02-14T11:40:17.565Z,13.60
2019-02-14T11:42:47.463Z,14.40
2019-02-14T11:45:20.896Z,14.30
2019-02-14T11:47:49.163Z,15.00
2019-02-14T11:50:17.405Z,14.00
2019-02-14T11:52:45.792Z,15.00
2019-02-14T11:55:14.133Z,15.90
2019-02-14T11:57:42.573Z,15.70
2019-02-14T12:00:20.451Z,16.10
2019-02-14T12:02:55.033Z,15.60
2019-02-14T12:05:18.748Z,15.80
2019-02-14T12:07:47.189Z,14.70
2019-02-14T12:10:15.492Z,14.70
2019-02-14T12:12:43.946Z,14.40
2019-02-14T12:15:13.939Z,14.70
2019-02-14T12:17:42.979Z,15.20
2019-02-14T12:20:12.878Z,15.80
2019-02-14T12:22:46.512Z,15.30
2019-02-14T12:25:14.298Z,15.50
2019-02-14T12:27:42.766Z,15.10
2019-02-14T12:30:13.799Z,14.80
2019-02-14T12:32:42.059Z,14.50
2019-02-14T12:35:11.869Z,14.90
2019-02-14T12:37:40.144Z,15.00
2019-02-14T12:40:13.124Z,15.10
2019-02-14T12:42:41.389Z,14.80
2019-02-14T12:45:20.534Z,14.50
2019-02-14T12:47:48.067Z,14.90
2019-02-14T12:50:16.322Z,14.80
2019-02-14T12:52:44.857Z,14.30
2019-02-14T12:55:13.179Z,14.20
2019-02-14T12:57:41.433Z,14.00
2019-02-14T13:00:18.522Z,13.80
2019-02-14T13:02:46.771Z,13.90
2019-02-14T13:05:15.031Z,14.30
2019-02-14T13:07:43.585Z,14.70
2019-02-14T13:10:17.400Z,14.90
2019-02-14T13:12:46.177Z,14.80
2019-02-14T13:15:25.062Z,14.70
2019-02-14T13:17:53.617Z,14.50
2019-02-14T13:20:21.843Z,14.90
2019-02-14T13:22:50.125Z,15.10
2019-02-14T13:25:19.158Z,15.60
2019-02-14T13:27:47.482Z,16.10
2019-02-14T13:30:25.179Z,16.40
2019-02-14T13:32:53.533Z,16.20
2019-02-14T13:35:21.797Z,15.90
2019-02-14T13:37:50.039Z,15.60
2019-02-14T13:40:19.046Z,15.40
2019-02-14T13:42:47.319Z,15.60
2019-02-14T13:45:24.285Z,15.60
2019-02-14T13:47:52.568Z,15.50
2019-02-14T13:50:20.818Z,15.40
2019-02-14T13:52:49.796Z,15.40
2019-02-14T13:55:18.105Z,15.60
2019-02-14T13:57:46.588Z,15.30
2019-02-14T14:00:25.887Z,15.10
2019-02-14T14:02:54.426Z,15.10
2019-02-14T14:05:22.688Z,15.00
2019-02-14T14:07:50.960Z,15.00
2019-02-14T14:10:19.237Z,14.80
2019-02-14T14:12:47.868Z,14.80
2019-02-14T14:15:16.208Z,14.80
2019-02-14T14:17:44.501Z,14.80
2019-02-14T14:20:13.096Z,14.80
2019-02-14T14:22:41.332Z,14.70
2019-02-14T14:25:11.423Z,14.70
2019-02-14T14:27:39.946Z,14.70
2019-02-14T14:30:11.072Z,14.60
2019-02-14T14:32:39.410Z,14.60
2019-02-14T14:35:10.790Z,14.60
2019-02-14T14:37:39.242Z,14.70
2019-02-14T14:40:14.083Z,14.70
2019-02-14T14:42:51.535Z,14.80
2019-02-14T14:45:25.520Z,14.80
2019-02-14T14:47:53.816Z,14.80
2019-02-14T14:50:22.172Z,14.70
2019-02-14T14:52:50.933Z,14.70
2019-02-14T14:55:19.193Z,14.70
2019-02-14T14:57:47.438Z,14.80
2019-02-14T15:00:15.847Z,14.90
2019-02-14T15:02:44.133Z,14.80
2019-02-14T15:05:12.366Z,14.90
2019-02-14T15:07:41.028Z,14.90
2019-02-14T15:10:09.259Z,14.80
2019-02-14T15:12:37.477Z,14.80
2019-02-14T15:15:08.081Z,14.90
2019-02-14T15:17:36.324Z,14.80
2019-02-14T15:20:07.832Z,14.80
2019-02-14T15:22:36.237Z,14.70
2019-02-14T15:25:05.136Z,14.80
2019-02-14T15:27:33.376Z,14.70
2019-02-14T15:30:01.710Z,14.70
2019-02-14T15:32:29.992Z,14.70
2019-02-14T15:34:58.222Z,14.80
2019-02-14T15:37:26.683Z,14.80
2019-02-14T15:39:54.988Z,14.80
2019-02-14T15:42:23.261Z,14.70
2019-02-14T15:44:51.594Z,14.70
2019-02-14T15:47:19.835Z,14.70
2019-02-14T15:49:49.353Z,14.60
2019-02-14T15:52:18.054Z,14.60
2019-02-14T15:54:46.291Z,14.60
2019-02-14T15:57:16.524Z,14.60
2019-02-14T15:59:45.462Z,14.50
2019-02-14T16:02:14.100Z,14.60
2019-02-14T16:04:42.332Z,14.50
2019-02-14T16:07:11.009Z,14.40
2019-02-14T16:09:41.248Z,14.40
2019-02-14T16:12:09.214Z,14.40
2019-02-14T16:14:37.547Z,14.30
2019-02-14T16:17:06.754Z,14.20
2019-02-14T16:19:36.537Z,14.20
2019-02-14T16:22:05.687Z,14.10
2019-02-14T16:24:33.986Z,14.00
2019-02-14T16:27:03.320Z,14.00
2019-02-14T16:29:31.876Z,13.90
2019-02-14T16:32:00.101Z,13.80
2019-02-14T16:34:28.374Z,13.70
2019-02-14T16:36:56.957Z,13.60
2019-02-14T16:39:25.746Z,13.60
2019-02-14T16:41:54.327Z,13.50
2019-02-14T16:44:22.763Z,13.30
2019-02-14T16:46:51.104Z,13.20
2019-02-14T16:49:19.327Z,13.20
2019-02-14T16:51:47.974Z,13.20
2019-02-14T16:54:16.202Z,13.10
2019-02-14T16:56:44.459Z,13.00
2019-02-14T16:59:12.895Z,13.00
2019-02-14T17:01:41.155Z,13.10
2019-02-14T17:04:09.379Z,13.10
2019-02-14T17:06:37.894Z,13.00
2019-02-14T17:09:06.793Z,12.90
2019-02-14T17:11:35.073Z,12.80
2019-02-14T17:14:05.627Z,12.60
2019-02-14T17:16:35.491Z,12.60
2019-02-14T17:19:03.740Z,12.50
2019-02-14T17:21:32.106Z,12.50
2019-02-14T17:24:00.357Z,12.50
2019-02-14T17:26:28.611Z,12.40
2019-02-14T17:28:57.058Z,12.40
2019-02-14T17:31:25.326Z,12.40
2019-02-14T17:33:53.579Z,12.30
2019-02-14T17:36:22.202Z,12.30
2019-02-14T17:38:50.477Z,12.30
2019-02-14T17:41:18.777Z,12.20
2019-02-14T17:43:47.240Z,12.20
2019-02-14T17:46:15.561Z,12.20
2019-02-14T17:48:43.843Z,12.10
2019-02-14T17:51:12.329Z,12.00
2019-02-14T17:53:40.560Z,11.90
2019-02-14T17:56:08.884Z,11.90
2019-02-14T17:58:37.388Z,11.80
2019-02-14T18:01:05.738Z,11.80
2019-02-14T18:03:34.085Z,11.70
2019-02-14T18:06:02.978Z,11.60
2019-02-14T18:08:31.245Z,11.50
2019-02-14T18:10:59.670Z,11.30
2019-02-14T18:13:28.191Z,11.20
2019-02-14T18:15:56.949Z,11.20
2019-02-14T18:18:25.261Z,11.10
2019-02-14T18:20:53.702Z,11.00
2019-02-14T18:23:22.420Z,11.00
2019-02-14T18:25:50.758Z,11.00
2019-02-14T18:28:20.136Z,11.00
2019-02-14T18:30:48.515Z,11.00
2019-02-14T18:33:17.625Z,11.10
2019-02-14T18:35:45.912Z,11.10
2019-02-14T18:38:14.478Z,11.10
2019-02-14T18:40:43.499Z,11.20
2019-02-14T18:43:11.800Z,11.40
2019-02-14T18:45:40.064Z,11.50
2019-02-14T18:48:08.993Z,11.30
2019-02-14T18:50:37.288Z,11.20
2019-02-14T18:53:05.546Z,11.10
2019-02-14T18:55:34.361Z,11.00
2019-02-14T18:58:03.862Z,10.90
2019-02-14T19:00:32.134Z,10.80
2019-02-14T19:03:00.705Z,10.70
2019-02-14T19:05:29.967Z,10.60
2019-02-14T19:07:58.223Z,10.40
2019-02-14T19:10:27.488Z,10.30
2019-02-14T19:12:56.210Z,10.30
2019-02-14T19:15:24.703Z,10.20
2019-02-14T19:17:53.436Z,10.20
2019-02-14T19:20:21.704Z,10.10
2019-02-14T19:22:50.150Z,10.10
2019-02-14T19:25:18.539Z,10.00
2019-02-14T19:27:46.940Z,9.90
2019-02-14T19:30:15.390Z,9.90
2019-02-14T19:32:44.538Z,9.80
2019-02-14T19:35:12.948Z,9.60
2019-02-14T19:37:41.396Z,9.60
2019-02-14T19:40:09.887Z,9.60
2019-02-14T19:42:38.156Z,9.50
2019-02-14T19:45:10.981Z,9.50
2019-02-14T19:47:39.299Z,9.40
2019-02-14T19:50:12.617Z,9.30
2019-02-14T19:52:41.023Z,9.30
2019-02-14T19:55:09.879Z,9.20
2019-02-14T19:57:38.364Z,9.20
2019-02-14T20:00:10.222Z,9.10
2019-02-14T20:02:38.539Z,9.10
2019-02-14T20:05:08.595Z,9.00
2019-02-14T20:07:36.888Z,9.00
2019-02-14T20:10:08.608Z,9.00
2019-02-14T20:12:37.248Z,8.90
2019-02-14T20:15:08.930Z,8.90
2019-02-14T20:17:37.212Z,8.90
2019-02-14T20:20:08.259Z,8.90
2019-02-14T20:22:36.629Z,9.00
2019-02-14T20:25:07.921Z,8.90
2019-02-14T20:27:36.557Z,8.90
2019-02-14T20:30:07.786Z,8.70
2019-02-14T20:32:36.092Z,8.60
2019-02-14T20:35:06.497Z,8.60
2019-02-14T20:37:35.235Z,8.50
2019-02-14T20:40:10.534Z,8.50
2019-02-14T20:42:38.789Z,8.40
2019-02-14T20:45:12.833Z,8.40
2019-02-14T20:47:41.182Z,8.30
2019-02-14T20:50:11.938Z,8.30
2019-02-14T20:52:40.906Z,8.30
2019-02-14T20:55:15.213Z,8.20
2019-02-14T20:57:44.334Z,8.10
2019-02-14T21:00:17.105Z,8.10
2019-02-14T21:02:45.545Z,8.00
2019-02-14T21:05:14.332Z,7.90
2019-02-14T21:07:42.952Z,7.90
2019-02-14T21:10:11.544Z,7.90
2019-02-14T21:12:39.773Z,7.90
2019-02-14T21:15:09.084Z,7.90
2019-02-14T21:17:39.283Z,7.90
2019-02-14T21:20:12.667Z,7.90
2019-02-14T21:22:41.132Z,7.90
2019-02-14T21:25:09.751Z,8.00
2019-02-14T21:27:38.099Z,7.90
2019-02-14T21:30:15.860Z,7.90
2019-02-14T21:32:44.889Z,7.80
2019-02-14T21:35:13.314Z,7.80
2019-02-14T21:37:41.928Z,7.80
2019-02-14T21:40:18.990Z,7.90
2019-02-14T21:42:47.514Z,7.80
2019-02-14T21:45:17.168Z,7.90
2019-02-14T21:47:45.753Z,7.80
2019-02-14T21:50:16.324Z,7.80
2019-02-14T21:52:44.635Z,7.90
2019-02-14T21:55:14.546Z,8.00
2019-02-14T21:57:43.112Z,8.00
2019-02-14T22:00:14.881Z,7.90
2019-02-14T22:02:43.504Z,7.90
2019-02-14T22:05:12.403Z,8.00
2019-02-14T22:07:40.772Z,7.90
2019-02-14T22:10:15.209Z,7.90
2019-02-14T22:12:44.266Z,7.80
2019-02-14T22:15:16.883Z,7.70
2019-02-14T22:17:45.165Z,7.80
2019-02-14T22:20:13.425Z,7.70
2019-02-14T22:22:41.857Z,7.70
2019-02-14T22:25:13.017Z,7.70
2019-02-14T22:27:41.263Z,7.70
2019-02-14T22:30:13.864Z,7.70
2019-02-14T22:32:43.749Z,7.70
2019-02-14T22:35:12.743Z,7.80
2019-02-14T22:37:41.240Z,7.80
2019-02-14T22:40:13.814Z,7.70
2019-02-14T22:42:46.976Z,7.70
2019-02-14T22:45:13.857Z,7.70
2019-02-14T22:47:42.182Z,7.70
2019-02-14T22:50:11.395Z,7.70
2019-02-14T22:52:39.627Z,7.70
2019-02-14T22:55:09.596Z,7.70
2019-02-14T22:57:37.907Z,7.80
2019-02-14T23:00:37.327Z,7.80
2019-02-14T23:03:05.682Z,7.70
2019-02-14T23:05:33.965Z,7.80
2019-02-14T23:08:02.479Z,7.70
2019-02-14T23:10:30.790Z,7.70
2019-02-14T23:12:59.034Z,7.60
2019-02-14T23:15:27.554Z,7.50
2019-02-14T23:17:55.801Z,7.60
2019-02-14T23:20:24.103Z,7.60
2019-02-14T23:22:52.359Z,7.50
2019-02-14T23:25:20.916Z,7.50
2019-02-14T23:27:49.234Z,7.40
2019-02-14T23:30:17.554Z,7.40
2019-02-14T23:32:46.038Z,7.30
2019-02-14T23:35:14.269Z,7.30
2019-02-14T23:37:42.582Z,7.30
2019-02-14T23:40:11.004Z,7.20
2019-02-14T23:42:39.236Z,7.20
2019-02-14T23:45:09.427Z,7.30
2019-02-14T23:47:37.946Z,7.20
2019-02-14T23:50:08.583Z,7.30
2019-02-14T23:52:36.835Z,7.30
2019-02-14T23:55:08.920Z,7.20
2019-02-14T23:57:36.474Z,7.20
